Time;durP1;ratioP1;P1;durP2;ratioP2;P2;SDS_P1;SDS_P2;PMS_P1;PMS_P2;Temp;Humidity;BMP_temperature;BMP_pressure;BME280_temperature;BME280_humidity;BME280_pressure;Samples;Min_cycle;Max_cycle;Signal;HPM_P1;HPM_P2
2022/08/23 00:00:11;;;;;;;2.30;0.70;;;23.60;60.80;;;;;;7389043;19;20035;-81
2022/08/23 00:02:40;;;;;;;3.08;0.60;;;23.60;60.90;;;;;;7366589;19;20021;-80
2022/08/23 00:05:10;;;;;;;2.58;0.65;;;23.60;60.80;;;;;;7365018;19;20010;-80
2022/08/23 00:07:39;;;;;;;3.33;0.68;;;23.60;60.80;;;;;;7366123;19;20078;-80
2022/08/23 00:10:10;;;;;;;3.85;0.63;;;23.60;60.90;;;;;;7365987;19;20559;-80
2022/08/23 00:12:40;;;;;;;2.70;0.80;;;23.50;61.00;;;;;;7366047;19;20020;-81
2022/08/23 00:15:15;;;;;;;3.10;0.93;;;23.50;61.00;;;;;;7388387;19;20048;-80
2022/08/23 00:17:44;;;;;;;2.95;0.70;;;23.50;61.00;;;;;;7364295;19;20514;-80
2022/08/23 00:20:16;;;;;;;1.10;0.70;;;23.50;61.00;;;;;;7365157;19;20015;-81
2022/08/23 00:22:46;;;;;;;3.78;0.73;;;23.50;61.20;;;;;;7365304;19;20082;-80
2022/08/23 00:25:17;;;;;;;2.38;0.80;;;23.50;61.20;;;;;;7366253;19;20011;-81
2022/08/23 00:27:46;;;;;;;2.90;0.93;;;23.50;61.50;;;;;;7366456;19;20018;-81
2022/08/23 00:30:18;;;;;;;2.55;0.90;;;23.60;61.60;;;;;;7392189;19;20070;-80
2022/08/23 00:32:47;;;;;;;4.07;0.98;;;23.50;61.50;;;;;;7370925;19;20027;-80
2022/08/23 00:35:19;;;;;;;3.00;0.73;;;23.50;61.60;;;;;;7369073;19;20031;-80
2022/08/23 00:37:49;;;;;;;0.60;0.60;;;23.50;61.70;;;;;;7366036;19;20047;-81
2022/08/23 00:40:20;;;;;;;2.28;0.75;;;23.50;61.70;;;;;;7364766;19;20022;-81
2022/08/23 00:48:23;;;;;;;2.50;0.70;;;23.50;61.80;;;;;;7363910;19;20391;-81
2022/08/23 00:51:00;;;;;;;3.45;0.80;;;23.50;61.90;;;;;;7364487;19;20057;-81
2022/08/23 00:53:33;;;;;;;1.83;0.95;;;23.50;61.90;;;;;;7363853;19;20011;-81
2022/08/23 00:56:05;;;;;;;2.25;0.70;;;23.50;61.90;;;;;;7365022;19;20010;-81
2022/08/23 00:58:34;;;;;;;5.60;0.70;;;23.50;62.10;;;;;;7364771;19;20035;-81
2022/08/23 01:01:07;;;;;;;5.25;0.80;;;23.60;62.00;;;;;;7364176;19;20081;-81
2022/08/23 01:03:39;;;;;;;5.05;0.90;;;23.60;62.10;;;;;;7365168;19;20062;-82
2022/08/23 01:06:13;;;;;;;2.63;0.82;;;23.60;62.10;;;;;;7385738;19;20418;-81
2022/08/23 01:08:45;;;;;;;4.60;0.60;;;23.60;61.90;;;;;;7367995;19;20496;-81
2022/08/23 01:11:18;;;;;;;2.75;0.70;;;23.60;61.70;;;;;;7371604;19;20031;-81
2022/08/23 01:13:54;;;;;;;0.73;0.70;;;23.60;61.80;;;;;;7371359;19;20020;-81
2022/08/23 01:16:32;;;;;;;2.83;0.70;;;23.60;61.90;;;;;;7371233;19;20114;-81
2022/08/23 01:19:06;;;;;;;1.27;0.85;;;23.60;62.00;;;;;;7371685;19;20374;-82
2022/08/23 01:21:40;;;;;;;1.92;0.93;;;23.60;62.00;;;;;;7388574;19;20019;-82
2022/08/23 01:24:12;;;;;;;2.05;0.90;;;23.50;62.00;;;;;;7391721;19;20018;-81
2022/08/23 01:26:41;;;;;;;1.13;0.80;;;23.50;62.10;;;;;;7370036;19;20028;-81
2022/08/23 01:29:10;;;;;;;0.98;0.77;;;23.50;62.30;;;;;;7371304;19;20085;-81
2022/08/23 01:31:39;;;;;;;2.55;0.82;;;23.50;62.40;;;;;;7369799;19;20121;-81
2022/08/23 01:34:15;;;;;;;2.75;0.70;;;23.50;62.50;;;;;;7370909;19;20568;-81
2022/08/23 01:36:44;;;;;;;1.23;0.77;;;23.50;62.50;;;;;;7371225;19;20015;-82
2022/08/23 01:39:18;;;;;;;1.83;0.70;;;23.40;62.60;;;;;;7392433;19;20019;-81
2022/08/23 01:41:47;;;;;;;2.50;0.80;;;23.40;62.70;;;;;;7370117;19;20014;-81
2022/08/23 01:44:16;;;;;;;6.47;0.80;;;23.40;62.90;;;;;;7371586;19;20074;-81
2022/08/23 01:46:46;;;;;;;0.70;0.70;;;23.40;62.70;;;;;;7370067;19;20023;-81
2022/08/23 01:49:17;;;;;;;1.15;0.93;;;23.40;62.70;;;;;;7370110;19;20039;-81
2022/08/23 01:51:46;;;;;;;2.60;1.00;;;23.40;62.90;;;;;;7368272;19;20014;-82
2022/08/23 01:54:17;;;;;;;1.30;0.77;;;23.40;63.00;;;;;;7391745;19;20046;-81
2022/08/23 01:56:46;;;;;;;;;;;23.40;62.90;;;;;;7370535;19;20035;-80
2022/08/23 01:59:16;;;;;;;3.40;0.80;;;23.40;63.00;;;;;;7368830;19;19918;-80
2022/08/23 02:01:46;;;;;;;3.15;0.98;;;23.40;62.90;;;;;;7368635;19;20129;-81
2022/08/23 02:04:14;;;;;;;4.43;0.80;;;23.40;63.00;;;;;;7369896;19;20022;-81
2022/08/23 02:06:43;;;;;;;4.85;0.80;;;23.40;62.90;;;;;;7369936;19;20094;-81
2022/08/23 02:09:12;;;;;;;4.32;1.13;;;23.40;62.80;;;;;;7391060;19;20022;-81
2022/08/23 02:11:45;;;;;;;2.08;0.80;;;23.40;62.70;;;;;;7369410;19;20006;-80
2022/08/23 02:14:17;;;;;;;1.38;0.77;;;23.40;63.00;;;;;;7370137;19;20192;-80
2022/08/23 02:16:48;;;;;;;1.95;0.80;;;23.40;63.00;;;;;;7369052;19;20010;-80
2022/08/23 02:19:17;;;;;;;3.50;1.08;;;23.40;62.90;;;;;;7368091;19;20560;-80
2022/08/23 02:21:46;;;;;;;2.38;0.90;;;23.40;62.90;;;;;;7370637;19;20018;-81
2022/08/23 02:24:17;;;;;;;0.90;0.90;;;23.50;63.00;;;;;;7390392;19;20082;-81
2022/08/23 02:26:50;;;;;;;;;;;23.50;62.70;;;;;;7370682;19;20032;-80
2022/08/23 02:29:22;;;;;;;2.85;0.93;;;23.50;62.60;;;;;;7368374;19;20282;-81
2022/08/23 02:31:51;;;;;;;1.33;1.00;;;23.50;62.50;;;;;;7369789;19;20014;-80
2022/08/23 02:34:20;;;;;;;2.95;1.10;;;23.50;63.60;;;;;;7368883;19;20087;-81
2022/08/23 02:36:49;;;;;;;5.00;1.10;;;23.50;62.70;;;;;;7369567;19;20097;-81
2022/08/23 02:39:19;;;;;;;2.65;0.90;;;23.50;62.70;;;;;;7389805;19;20106;-81
2022/08/23 02:41:51;;;;;;;4.43;1.10;;;23.50;62.70;;;;;;7368405;19;20501;-81
2022/08/23 02:44:20;;;;;;;2.08;0.80;;;23.50;62.80;;;;;;7368970;19;20026;-81
2022/08/23 02:46:49;;;;;;;3.78;1.08;;;23.50;62.80;;;;;;7368495;19;20018;-81
2022/08/23 02:49:20;;;;;;;1.15;1.02;;;23.40;62.90;;;;;;7369583;19;20014;-81
2022/08/23 02:51:49;;;;;;;2.33;0.90;;;23.40;63.20;;;;;;7369330;19;20023;-81
2022/08/23 02:54:18;;;;;;;1.45;1.10;;;23.40;63.30;;;;;;7389343;19;20130;-80
2022/08/23 02:56:50;;;;;;;1.45;0.90;;;23.40;63.50;;;;;;7367959;19;20090;-80
2022/08/23 02:59:19;;;;;;;3.72;0.70;;;23.40;63.40;;;;;;7367531;19;20011;-80
2022/08/23 03:01:48;;;;;;;0.75;0.70;;;23.40;63.50;;;;;;7367494;19;20010;-81
2022/08/23 03:04:16;;;;;;;4.38;0.65;;;23.40;63.50;;;;;;7366777;19;20085;-81
2022/08/23 03:06:45;;;;;;;3.67;1.00;;;23.40;63.60;;;;;;7368511;19;20014;-82
2022/08/23 03:09:14;;;;;;;3.42;1.33;;;23.40;63.60;;;;;;7389319;19;20474;-80
2022/08/23 03:11:50;;;;;;;3.90;1.15;;;23.30;63.60;;;;;;7367211;19;20018;-80
2022/08/23 03:14:23;;;;;;;2.67;0.95;;;23.40;63.50;;;;;;7367632;19;20017;-80
2022/08/23 03:16:52;;;;;;;2.72;0.80;;;23.40;63.30;;;;;;7367208;19;20028;-80
2022/08/23 03:19:21;;;;;;;1.20;0.80;;;23.40;63.30;;;;;;7366911;19;20078;-81
2022/08/23 03:21:49;;;;;;;1.75;0.80;;;23.30;63.30;;;;;;7367920;19;20087;-81
2022/08/23 03:24:18;;;;;;;1.65;0.85;;;23.30;63.50;;;;;;7387952;19;20027;-81
2022/08/23 03:26:47;;;;;;;2.83;0.82;;;23.30;63.50;;;;;;7367067;19;20019;-80
2022/08/23 03:29:16;;;;;;;7.32;0.93;;;23.20;63.60;;;;;;7366795;19;20007;-80
2022/08/23 03:31:47;;;;;;;5.47;1.20;;;23.20;63.70;;;;;;7366493;19;20013;-80
2022/08/23 03:34:16;;;;;;;2.42;1.15;;;23.10;63.80;;;;;;7367131;19;20015;-80
2022/08/23 03:36:45;;;;;;;4.68;1.02;;;23.10;64.10;;;;;;7367288;19;20386;-81
2022/08/23 03:39:14;;;;;;;1.55;0.98;;;23.10;64.30;;;;;;7388964;19;20093;-80
2022/08/23 03:41:43;;;;;;;2.45;1.15;;;23.10;64.50;;;;;;7365933;19;20098;-81
2022/08/23 03:44:11;;;;;;;1.63;0.85;;;23.10;64.50;;;;;;7366263;19;20018;-81
2022/08/23 03:46:40;;;;;;;3.17;1.10;;;23.10;64.40;;;;;;7367242;19;20017;-81
2022/08/23 03:49:11;;;;;;;1.85;0.90;;;23.10;64.40;;;;;;7365914;19;20011;-81
2022/08/23 03:51:40;;;;;;;4.13;0.90;;;23.00;64.40;;;;;;7367958;19;20808;-81
2022/08/23 03:54:09;;;;;;;2.85;1.13;;;23.00;64.40;;;;;;7387649;19;20035;-80
2022/08/23 03:56:40;;;;;;;3.88;1.02;;;23.00;64.30;;;;;;7366572;19;20018;-80
2022/08/23 03:59:10;;;;;;;2.70;0.85;;;23.10;64.30;;;;;;7366539;19;20086;-81
2022/08/23 04:01:39;;;;;;;2.08;1.08;;;23.10;64.20;;;;;;7365486;19;20027;-80
2022/08/23 04:04:10;;;;;;;2.83;0.90;;;23.10;64.20;;;;;;7366090;19;20098;-87
2022/08/23 04:06:40;;;;;;;2.20;0.93;;;23.10;64.20;;;;;;7365381;19;20021;-83
2022/08/23 04:09:08;;;;;;;4.22;0.85;;;23.00;64.10;;;;;;7386878;19;20025;-84
2022/08/23 04:11:37;;;;;;;1.40;0.88;;;23.00;64.20;;;;;;7366766;19;20094;-81
2022/08/23 04:14:06;;;;;;;2.63;0.90;;;23.00;64.50;;;;;;7366166;19;20011;-78
2022/08/23 04:16:37;;;;;;;3.00;0.90;;;23.00;64.50;;;;;;7365561;19;20025;-77
2022/08/23 04:19:06;;;;;;;2.40;0.77;;;23.00;64.70;;;;;;7365049;19;20018;-83
2022/08/23 04:21:39;;;;;;;1.00;1.00;;;23.00;64.80;;;;;;7384300;19;20118;-84
2022/08/23 04:24:08;;;;;;;6.80;1.00;;;22.90;64.80;;;;;;7391339;19;20055;-83
2022/08/23 04:26:39;;;;;;;1.88;1.00;;;22.90;65.00;;;;;;7367014;19;20035;-84
2022/08/23 04:29:10;;;;;;;1.70;1.10;;;22.90;64.80;;;;;;7380190;19;20010;-87
2022/08/23 04:31:39;;;;;;;2.55;1.00;;;22.90;64.90;;;;;;7382608;19;20042;-88
2022/08/23 04:34:08;;;;;;;2.90;1.00;;;22.90;65.00;;;;;;7370028;19;20018;-88
2022/08/23 04:36:41;;;;;;;13.30;9.13;;;23.00;65.00;;;;;;7365430;19;20018;-83
2022/08/23 04:39:11;;;;;;;12.55;8.02;;;23.00;65.00;;;;;;7388922;19;20162;-86
2022/08/23 04:44:21;;;;;;;29.42;20.23;;;22.90;65.00;;;;;;7373702;19;20053;-78
2022/08/23 04:46:50;;;;;;;12.00;8.75;;;22.90;65.10;;;;;;7371986;19;20475;-80
2022/08/23 04:49:20;;;;;;;87.35;52.17;;;22.90;65.20;;;;;;7372992;19;20022;-83
2022/08/23 04:51:52;;;;;;;20.17;11.63;;;22.80;65.30;;;;;;7372187;19;20634;-79
2022/08/23 04:54:21;;;;;;;7.95;2.72;;;22.90;65.40;;;;;;7393759;19;20102;-78
2022/08/23 04:56:50;;;;;;;7.60;1.92;;;22.90;65.20;;;;;;7370223;19;20015;-80
2022/08/23 04:59:18;;;;;;;6.22;1.48;;;22.80;65.20;;;;;;7370711;19;20098;-80
2022/08/23 05:01:47;;;;;;;6.20;1.45;;;22.80;65.30;;;;;;7371837;19;20015;-79
2022/08/23 05:04:16;;;;;;;6.93;1.92;;;22.80;65.40;;;;;;7371067;19;20015;-76
2022/08/23 05:06:45;;;;;;;6.20;1.35;;;22.80;65.40;;;;;;7372092;19;20021;-75
2022/08/23 05:09:17;;;;;;;4.85;1.42;;;22.80;65.50;;;;;;7389095;19;20714;-75
2022/08/23 05:11:45;;;;;;;3.67;1.40;;;22.80;65.50;;;;;;7370947;19;20105;-76
2022/08/23 05:14:14;;;;;;;2.97;1.20;;;22.80;65.60;;;;;;7369553;19;20010;-75
2022/08/23 05:16:43;;;;;;;4.68;1.50;;;22.80;65.50;;;;;;7369522;19;20404;-75
2022/08/23 05:19:11;;;;;;;3.83;1.40;;;22.80;65.40;;;;;;7370891;19;20006;-76
2022/08/23 05:21:40;;;;;;;4.47;1.30;;;22.80;65.40;;;;;;7370527;19;20090;-76
2022/08/23 05:24:09;;;;;;;2.20;1.30;;;22.80;65.40;;;;;;7391465;19;20350;-79
2022/08/23 05:26:40;;;;;;;4.53;1.50;;;22.80;65.50;;;;;;7369128;19;20109;-79
2022/08/23 05:29:08;;;;;;;;;;;22.80;65.40;;;;;;7367298;19;20023;-80
2022/08/23 05:31:37;;;;;;;7.15;1.92;;;22.90;65.40;;;;;;7379190;19;20449;-86
2022/08/23 05:34:06;;;;;;;6.30;1.60;;;22.80;65.20;;;;;;7405381;19;20034;-91
2022/08/23 05:36:36;;;;;;;6.15;1.50;;;22.80;65.30;;;;;;7423534;19;20019;-88
2022/08/23 05:41:39;;;;;;;7.03;1.65;;;22.90;65.40;;;;;;7369698;19;20276;31
2022/08/23 05:44:11;;;;;;;3.58;1.40;;;22.90;65.20;;;;;;7311796;19;21005;-91
2022/08/23 05:46:40;;;;;;;6.88;1.55;;;22.90;65.10;;;;;;7342735;19;19995;-88
2022/08/23 05:49:09;;;;;;;7.80;1.55;;;22.90;64.90;;;;;;7390722;19;20011;-90
2022/08/23 05:51:38;;;;;;;4.57;1.35;;;22.90;64.90;;;;;;7409966;19;20014;-88
2022/08/23 05:54:09;;;;;;;3.88;1.50;;;22.90;65.00;;;;;;7429609;19;20006;-92
2022/08/23 05:56:41;;;;;;;4.13;1.20;;;23.00;65.00;;;;;;7394915;19;20022;-91
2022/08/23 05:59:15;;;;;;;5.65;1.95;;;23.00;64.80;;;;;;7405594;19;19998;-91
2022/08/23 06:01:45;;;;;;;8.15;1.45;;;23.00;65.00;;;;;;7398460;19;20019;-92
2022/08/23 06:04:14;;;;;;;9.40;1.60;;;23.00;64.80;;;;;;7396458;19;20028;-92
2022/08/23 06:06:44;;;;;;;2.45;1.30;;;23.10;64.90;;;;;;7396881;19;20023;-92
2022/08/23 06:09:16;;;;;;;7.68;1.60;;;23.10;65.10;;;;;;7415637;19;20015;-92
2022/08/23 06:11:46;;;;;;;2.75;1.30;;;23.10;65.00;;;;;;7395820;19;20021;-93
2022/08/23 06:14:18;;;;;;;5.30;1.50;;;23.20;65.10;;;;;;7398640;19;20014;-93
2022/08/23 06:16:50;;;;;;;3.42;1.63;;;23.20;65.10;;;;;;7396645;19;20013;-92
2022/08/23 06:19:19;;;;;;;8.45;2.70;;;23.30;65.10;;;;;;7393861;19;20011;-92
2022/08/23 06:21:48;;;;;;;3.25;1.45;;;23.30;65.00;;;;;;7394558;19;20026;-91
2022/08/23 06:24:17;;;;;;;7.40;1.50;;;23.30;65.00;;;;;;7415831;19;20011;-92
2022/08/23 06:26:46;;;;;;;8.23;1.40;;;23.30;65.10;;;;;;7395591;19;20010;-92
2022/08/23 06:29:20;;;;;;;4.22;1.40;;;23.40;65.10;;;;;;7395802;19;20335;-92
2022/08/23 06:31:51;;;;;;;5.07;1.50;;;23.40;65.10;;;;;;7394676;19;20025;-92
2022/08/23 06:34:23;;;;;;;3.78;1.70;;;23.50;65.00;;;;;;7404006;19;20086;-92
2022/08/23 06:36:55;;;;;;;5.10;1.40;;;23.60;65.00;;;;;;7394923;19;20026;-92
2022/08/23 06:39:26;;;;;;;2.22;1.35;;;23.60;65.10;;;;;;7412028;19;20031;-92
2022/08/23 06:41:59;;;;;;;4.03;1.40;;;23.70;65.10;;;;;;7390521;19;20014;-92
2022/08/23 06:44:35;;;;;;;1.83;1.30;;;23.70;64.90;;;;;;7388202;19;20049;-92
2022/08/23 06:47:05;;;;;;;4.63;1.77;;;23.80;64.70;;;;;;7388674;19;20018;-92
2022/08/23 06:49:33;;;;;;;4.15;1.60;;;23.80;64.40;;;;;;7387708;19;20134;-92
2022/08/23 06:52:04;;;;;;;1.88;1.40;;;23.90;64.40;;;;;;7383285;19;20014;-92
2022/08/23 06:54:35;;;;;;;2.65;1.65;;;23.90;64.30;;;;;;7408154;19;20042;-92
2022/08/23 06:57:05;;;;;;;2.50;1.70;;;23.90;64.30;;;;;;7387026;19;20006;-91
2022/08/23 06:59:36;;;;;;;5.65;1.17;;;24.00;64.40;;;;;;7400117;19;20003;-92
2022/08/23 07:02:07;;;;;;;5.75;1.48;;;24.00;65.20;;;;;;7404180;19;20003;-91
2022/08/23 07:04:38;;;;;;;2.83;1.48;;;24.00;64.40;;;;;;7390886;19;20018;-92
2022/08/23 07:07:08;;;;;;;2.53;1.50;;;24.10;64.40;;;;;;7388199;19;20006;-92
2022/08/23 07:09:37;;;;;;;3.08;1.55;;;24.20;64.30;;;;;;7387559;19;20015;-89
2022/08/23 07:12:07;;;;;;;4.15;1.75;;;24.30;64.20;;;;;;7410365;19;20019;-93
2022/08/23 07:14:41;;;;;;;5.25;1.80;;;24.30;64.10;;;;;;7386950;19;20014;-92
2022/08/23 07:17:10;;;;;;;2.55;1.50;;;24.40;64.10;;;;;;7388124;19;20014;-92
2022/08/23 07:19:40;;;;;;;4.85;1.80;;;24.40;64.20;;;;;;7390889;19;20021;-92
2022/08/23 07:22:08;;;;;;;5.22;1.67;;;24.50;64.10;;;;;;7389859;19;20015;-93
2022/08/23 07:24:38;;;;;;;5.45;1.50;;;24.50;64.20;;;;;;7389894;19;20011;-91
2022/08/23 07:27:08;;;;;;;3.17;1.65;;;24.60;65.30;;;;;;7412343;19;20026;-92
2022/08/23 07:29:41;;;;;;;4.03;1.48;;;24.70;64.60;;;;;;7389249;19;20029;-92
2022/08/23 07:32:11;;;;;;;4.72;1.60;;;24.70;64.30;;;;;;7393528;19;20083;-93
2022/08/23 07:34:40;;;;;;;2.13;1.33;;;24.80;64.20;;;;;;7389381;19;20002;-92
2022/08/23 07:37:09;;;;;;;4.97;1.48;;;24.80;64.20;;;;;;7386961;19;20011;-92
2022/08/23 07:39:37;;;;;;;4.43;1.58;;;24.90;64.00;;;;;;7384095;19;20022;-92
2022/08/23 07:42:07;;;;;;;5.50;1.75;;;24.90;63.90;;;;;;7413690;19;20495;-92
2022/08/23 07:44:36;;;;;;;1.83;1.38;;;25.00;63.90;;;;;;7395527;19;20041;-93
2022/08/23 07:47:08;;;;;;;2.00;1.33;;;25.10;63.80;;;;;;7399091;19;20010;-93
2022/08/23 07:49:36;;;;;;;6.35;1.63;;;25.10;63.80;;;;;;7391406;19;20011;-92
2022/08/23 07:52:06;;;;;;;4.28;1.80;;;25.10;63.60;;;;;;7390624;19;20027;-92
2022/08/23 07:54:34;;;;;;;5.25;1.52;;;25.20;63.60;;;;;;7404082;19;20034;-89
2022/08/23 07:57:03;;;;;;;3.88;1.30;;;25.30;63.50;;;;;;7404854;19;20031;-92
2022/08/23 07:59:32;;;;;;;6.20;1.70;;;25.30;63.40;;;;;;7381768;19;20032;-92
2022/08/23 08:02:01;;;;;;;3.45;1.50;;;25.30;63.20;;;;;;7380848;19;20074;-91
2022/08/23 08:04:32;;;;;;;4.47;1.50;;;25.40;63.30;;;;;;7381531;19;20051;-91
2022/08/23 08:07:01;;;;;;;4.07;1.67;;;25.40;63.10;;;;;;7386131;19;20023;-92
2022/08/23 08:09:30;;;;;;;2.95;1.80;;;25.50;63.00;;;;;;7418481;19;20014;-92
2022/08/23 08:11:59;;;;;;;3.08;1.60;;;25.50;62.70;;;;;;7406579;19;20013;-92
2022/08/23 08:14:28;;;;;;;8.20;2.47;;;25.60;62.70;;;;;;7405800;19;20025;-92
2022/08/23 08:16:57;;;;;;;5.60;1.98;;;25.60;62.50;;;;;;7405596;19;20015;-92
2022/08/23 08:19:26;;;;;;;3.60;1.52;;;25.60;62.20;;;;;;7410405;19;19999;-92
2022/08/23 08:21:57;;;;;;;4.20;1.40;;;25.70;62.20;;;;;;7394801;19;20180;-91
2022/08/23 08:24:30;;;;;;;2.58;1.63;;;25.70;62.30;;;;;;7409606;19;20014;-92
2022/08/23 08:26:58;;;;;;;5.05;1.60;;;25.70;62.50;;;;;;7388667;19;20022;-91
2022/08/23 08:29:27;;;;;;;1.73;1.35;;;25.80;62.30;;;;;;7388872;19;20011;-92
2022/08/23 08:31:56;;;;;;;3.30;1.55;;;25.80;62.30;;;;;;7391518;19;20019;-92
2022/08/23 08:34:25;;;;;;;2.72;1.60;;;25.90;62.20;;;;;;7387340;19;20015;-91
2022/08/23 08:36:58;;;;;;;2.63;1.50;;;25.90;61.90;;;;;;7384164;19;20035;-91
2022/08/23 08:39:30;;;;;;;3.53;1.40;;;25.90;61.80;;;;;;7409662;19;20014;-92
2022/08/23 08:42:07;;;;;;;;;;;26.00;61.70;;;;;;7389394;19;20018;-92
2022/08/23 08:44:44;;;;;;;4.43;2.15;;;26.10;61.70;;;;;;7387593;19;19918;-91
2022/08/23 08:47:18;;;;;;;5.25;1.67;;;26.10;61.30;;;;;;7388914;19;20018;-92
2022/08/23 08:49:53;;;;;;;4.07;1.77;;;26.10;61.10;;;;;;7390115;19;20036;-92
2022/08/23 08:52:28;;;;;;;3.17;1.42;;;26.20;61.20;;;;;;7389410;19;20022;-92
2022/08/23 08:55:03;;;;;;;4.05;1.35;;;26.20;61.00;;;;;;7389475;19;20107;-92
2022/08/23 08:57:38;;;;;;;1.65;1.42;;;26.20;61.20;;;;;;7408095;19;20019;-92
2022/08/23 09:00:12;;;;;;;5.05;1.30;;;26.20;61.50;;;;;;7385672;19;20006;-92
2022/08/23 09:02:41;;;;;;;5.70;1.40;;;26.20;61.80;;;;;;7389204;19;20017;-92
2022/08/23 09:05:14;;;;;;;2.60;1.70;;;26.30;61.80;;;;;;7385778;19;20047;-92
2022/08/23 09:07:56;;;;;;;7.47;1.60;;;26.30;61.20;;;;;;7388424;19;20014;-92
2022/08/23 09:10:50;;;;;;;2.03;1.60;;;26.40;60.20;;;;;;7386924;19;20011;-92
2022/08/23 09:13:54;;;;;;;4.15;1.80;;;26.40;60.20;;;;;;7388561;19;20011;-92
2022/08/23 09:16:37;;;;;;;1.95;1.52;;;26.40;60.30;;;;;;7387174;19;20033;-92
2022/08/23 09:19:09;;;;;;;7.65;1.80;;;26.40;60.20;;;;;;7388241;19;20018;-92
2022/08/23 09:21:42;;;;;;;;;;;26.60;59.50;;;;;;7390250;19;20032;-90
2022/08/23 09:24:14;;;;;;;1.40;1.30;;;26.60;59.70;;;;;;7405802;19;20023;-91
2022/08/23 09:26:44;;;;;;;3.55;1.77;;;26.60;59.70;;;;;;7385811;19;20088;-91
2022/08/23 09:29:22;;;;;;;1.35;1.25;;;26.60;59.80;;;;;;7382803;19;20369;-90
2022/08/23 09:31:54;;;;;;;2.60;1.50;;;26.60;59.60;;;;;;7383402;19;20018;-91
2022/08/23 09:34:38;;;;;;;3.67;1.50;;;26.70;59.70;;;;;;7381653;19;20021;-90
2022/08/23 09:37:17;;;;;;;1.70;1.60;;;26.70;59.20;;;;;;7382341;19;20308;-91
2022/08/23 09:39:54;;;;;;;3.70;1.55;;;26.70;59.00;;;;;;7385898;19;20015;-90
2022/08/23 09:42:33;;;;;;;3.05;1.73;;;26.80;59.00;;;;;;7404507;19;20018;-90
2022/08/23 09:45:02;;;;;;;4.40;1.80;;;26.70;59.00;;;;;;7386003;19;20070;-90
2022/08/23 09:47:39;;;;;;;4.85;1.67;;;26.80;59.00;;;;;;7382842;19;20028;-91
2022/08/23 09:50:19;;;;;;;5.47;1.60;;;26.70;59.00;;;;;;7382613;19;20037;-91
2022/08/23 09:52:50;;;;;;;7.57;2.25;;;26.80;59.30;;;;;;7378461;19;20019;-91
2022/08/23 09:55:34;;;;;;;8.65;1.70;;;26.80;59.00;;;;;;7377635;19;20011;-91
2022/08/23 09:58:06;;;;;;;4.00;1.50;;;26.90;58.80;;;;;;7379956;19;20029;-91
2022/08/23 10:00:40;;;;;;;2.38;1.60;;;26.90;58.90;;;;;;7394750;19;20025;-89
2022/08/23 10:03:25;;;;;;;6.45;1.85;;;27.00;58.70;;;;;;7397360;19;20018;-90
2022/08/23 10:05:56;;;;;;;9.50;1.52;;;27.00;58.80;;;;;;7376295;19;20042;-91
2022/08/23 10:08:27;;;;;;;;;;;26.90;59.00;;;;;;7378227;19;20485;-90
2022/08/23 10:11:08;;;;;;;6.93;2.27;;;27.00;59.00;;;;;;7377160;19;19915;-91
2022/08/23 10:13:37;;;;;;;6.22;1.58;;;27.00;58.80;;;;;;7377574;19;20521;-91
2022/08/23 10:16:15;;;;;;;9.43;2.05;;;27.00;58.60;;;;;;7378092;19;20031;-91
2022/08/23 10:18:55;;;;;;;6.47;1.40;;;26.70;59.00;;;;;;7379954;19;20031;-91
2022/08/23 10:21:30;;;;;;;2.42;1.58;;;26.70;59.40;;;;;;7398826;19;20078;-90
2022/08/23 10:24:14;;;;;;;3.80;1.75;;;26.70;59.90;;;;;;7380190;19;20457;-90
2022/08/23 10:26:55;;;;;;;4.38;1.52;;;26.50;59.70;;;;;;7383641;19;20461;-90
2022/08/23 10:29:36;;;;;;;;;;;26.50;59.80;;;;;;7388587;19;20010;-90
2022/08/23 10:32:17;;;;;;;4.72;1.48;;;26.60;60.10;;;;;;7384450;19;19938;-90
2022/08/23 10:35:02;;;;;;;11.55;1.45;;;26.70;59.80;;;;;;7380953;19;20036;-91
2022/08/23 10:37:53;;;;;;;6.43;1.50;;;26.70;58.90;;;;;;7377628;19;20022;-90
2022/08/23 10:40:27;;;;;;;1.98;1.05;;;26.70;59.00;;;;;;7386840;19;20014;-90
2022/08/23 10:43:10;;;;;;;2.22;0.80;;;26.70;58.10;;;;;;7389459;19;20014;-90
2022/08/23 10:45:42;;;;;;;1.20;1.00;;;26.70;57.80;;;;;;7375352;19;20018;-90
2022/08/23 10:48:27;;;;;;;3.92;1.10;;;26.90;58.30;;;;;;7397449;19;20018;-91
2022/08/23 10:50:59;;;;;;;0.93;0.90;;;26.90;58.10;;;;;;7378984;19;20010;-91
2022/08/23 10:53:37;;;;;;;1.85;0.93;;;26.90;57.90;;;;;;7383892;19;20010;-90
2022/08/23 10:56:12;;;;;;;1.15;1.05;;;27.00;57.90;;;;;;7392439;19;20021;-89
2022/08/23 10:58:48;;;;;;;3.53;1.10;;;27.00;57.90;;;;;;7400545;19;20090;-89
2022/08/23 11:01:21;;;;;;;2.90;0.80;;;27.00;57.70;;;;;;7404409;19;20026;-89
2022/08/23 11:04:01;;;;;;;2.72;1.17;;;26.90;57.70;;;;;;7397222;19;20011;-89
2022/08/23 11:06:47;;;;;;;2.70;1.07;;;27.00;57.80;;;;;;7416678;19;20010;-89
2022/08/23 11:09:49;;;;;;;3.33;1.00;;;27.00;57.90;;;;;;7376749;19;20022;-90
2022/08/23 11:12:26;;;;;;;2.63;0.90;;;27.00;57.90;;;;;;7375476;19;20014;-90
2022/08/23 11:15:20;;;;;;;2.58;0.80;;;27.00;57.60;;;;;;7379078;19;20015;-90
2022/08/23 11:18:03;;;;;;;1.63;0.70;;;26.90;57.10;;;;;;7373335;19;20386;-90
2022/08/23 11:21:02;;;;;;;0.93;0.80;;;27.00;57.30;;;;;;7374625;19;20018;-90
2022/08/23 11:23:46;;;;;;;1.77;0.75;;;26.90;57.20;;;;;;7373692;19;20010;-91
2022/08/23 11:26:54;;;;;;;1.58;0.75;;;27.00;56.80;;;;;;7372160;19;20018;-90
2022/08/23 11:29:31;;;;;;;11.65;0.90;;;27.00;57.30;;;;;;7369653;19;20436;-90
2022/08/23 11:32:13;;;;;;;0.70;0.70;;;26.90;57.10;;;;;;7372225;19;20082;-89
2022/08/23 11:34:49;;;;;;;2.78;0.88;;;26.90;58.00;;;;;;7372879;19;20027;-90
2022/08/23 11:37:48;;;;;;;1.20;0.80;;;27.00;57.40;;;;;;7371160;19;20025;-91
2022/08/23 11:40:37;;;;;;;0.80;0.68;;;27.10;56.90;;;;;;7373851;19;20045;-90
2022/08/23 11:43:11;;;;;;;3.95;0.70;;;27.30;56.40;;;;;;7371958;19;20020;-90
2022/08/23 11:45:47;;;;;;;0.65;0.65;;;27.40;55.60;;;;;;7369315;19;20098;-89
2022/08/23 11:48:22;;;;;;;0.60;0.60;;;27.50;55.50;;;;;;7392634;19;20031;-90
2022/08/23 11:51:17;;;;;;;0.65;0.63;;;27.60;55.00;;;;;;7374113;19;20025;-90
2022/08/23 11:54:17;;;;;;;0.70;0.60;;;27.50;54.80;;;;;;7372356;19;20038;-90
2022/08/23 11:57:06;;;;;;;3.05;0.80;;;27.50;55.10;;;;;;7370116;19;20027;-90
2022/08/23 12:00:17;;;;;;;1.02;0.57;;;27.70;55.10;;;;;;7373415;19;20035;-90
2022/08/23 12:03:01;;;;;;;1.07;0.57;;;27.90;54.60;;;;;;7368891;19;20018;-89
2022/08/23 12:05:59;;;;;;;1.70;0.50;;;27.90;54.10;;;;;;7373395;19;20086;-89
2022/08/23 12:08:54;;;;;;;1.55;0.47;;;27.80;54.60;;;;;;7372802;19;20510;-90
2022/08/23 12:11:25;;;;;;;1.08;0.55;;;27.80;54.70;;;;;;7372354;19;20394;-90
2022/08/23 12:14:01;;;;;;;0.45;0.30;;;27.80;54.40;;;;;;7370760;19;20785;-90
2022/08/23 12:16:40;;;;;;;0.43;0.40;;;27.80;54.30;;;;;;7369543;19;20011;-89
2022/08/23 12:19:13;;;;;;;0.55;0.35;;;27.90;54.30;;;;;;7371612;19;20473;-91
2022/08/23 12:21:51;;;;;;;1.02;0.38;;;28.10;53.20;;;;;;7368428;19;20014;-90
2022/08/23 12:24:25;;;;;;;3.80;0.63;;;28.30;52.70;;;;;;7391955;19;20695;-90
2022/08/23 12:27:06;;;;;;;1.10;0.50;;;28.50;52.30;;;;;;7367945;19;20839;-89
2022/08/23 12:29:50;;;;;;;0.68;0.60;;;28.70;51.60;;;;;;7369651;19;20010;-88
2022/08/23 12:32:25;;;;;;;0.60;0.60;;;28.80;50.90;;;;;;7370333;19;20092;-88
2022/08/23 12:35:07;;;;;;;2.15;1.83;;;28.90;51.60;;;;;;7370994;19;20094;-89
2022/08/23 12:37:47;;;;;;;4.35;1.70;;;29.00;52.10;;;;;;7372373;19;20077;-88
2022/08/23 12:40:23;;;;;;;2.97;1.50;;;29.00;51.60;;;;;;7371815;19;20063;-90
2022/08/23 12:42:53;;;;;;;0.50;0.50;;;29.10;51.50;;;;;;7371371;19;20034;-89
2022/08/23 12:45:24;;;;;;;2.53;1.08;;;29.10;51.20;;;;;;7391717;19;20014;-90
2022/08/23 12:47:59;;;;;;;1.00;0.50;;;29.20;51.50;;;;;;7369398;19;20014;-89
2022/08/23 12:50:32;;;;;;;0.98;0.52;;;29.20;50.90;;;;;;7369709;19;20030;-90
2022/08/23 12:53:06;;;;;;;1.65;0.40;;;29.20;51.10;;;;;;7371577;19;20026;-89
2022/08/23 12:55:38;;;;;;;2.13;1.17;;;29.20;51.50;;;;;;7371895;19;20031;-89
2022/08/23 12:58:08;;;;;;;0.38;0.38;;;29.20;51.40;;;;;;7371691;19;20085;-90
2022/08/23 13:00:42;;;;;;;3.60;0.60;;;29.00;51.20;;;;;;7368289;19;20074;-89
2022/08/23 13:03:17;;;;;;;0.55;0.40;;;28.90;51.50;;;;;;7395653;19;20014;-89
2022/08/23 13:05:49;;;;;;;4.38;0.50;;;28.90;51.60;;;;;;7381117;19;20095;-90
2022/08/23 13:08:27;;;;;;;0.85;0.40;;;28.80;51.90;;;;;;7383252;19;20423;-90
2022/08/23 13:10:57;;;;;;;3.25;0.45;;;28.90;52.20;;;;;;7381883;19;20010;-90
2022/08/23 13:13:29;;;;;;;3.33;0.50;;;29.10;51.90;;;;;;7381979;19;20024;-88
2022/08/23 13:16:00;;;;;;;1.35;0.45;;;29.20;51.30;;;;;;7381255;19;20027;-89
2022/08/23 13:18:30;;;;;;;;;;;29.20;50.50;;;;;;7399524;19;20452;-89
2022/08/23 13:21:28;;;;;;;0.47;0.47;;;29.30;50.60;;;;;;7378674;19;19931;-89
2022/08/23 13:24:02;;;;;;;3.45;0.40;;;29.20;51.00;;;;;;7378950;19;20022;-89
2022/08/23 13:26:39;;;;;;;1.42;0.38;;;29.20;50.40;;;;;;7379034;19;20086;-89
2022/08/23 13:29:12;;;;;;;2.13;0.60;;;29.10;51.00;;;;;;7378797;19;20047;-87